sensor_id;sensor_type;location;lat;lon;timestamp;temperature;humidity
36856;DHT22;22788;51.434;6.786;2023-04-24T00:00:37;12.80;99.90
36856;DHT22;22788;51.434;6.786;2023-04-24T00:03:03;12.90;99.90
36856;DHT22;22788;51.434;6.786;2023-04-24T00:05:28;13.00;99.90
36856;DHT22;22788;51.434;6.786;2023-04-24T00:07:54;13.00;99.90
36856;DHT22;22788;51.434;6.786;2023-04-24T00:10:20;13.00;99.90
36856;DHT22;22788;51.434;6.786;2023-04-24T00:12:45;13.00;99.90
36856;DHT22;22788;51.434;6.786;2023-04-24T00:15:13;12.90;99.90
36856;DHT22;22788;51.434;6.786;2023-04-24T00:17:38;12.90;99.90
36856;DHT22;22788;51.434;6.786;2023-04-24T00:20:05;12.90;99.90
36856;DHT22;22788;51.434;6.786;2023-04-24T00:22:31;12.90;99.90
36856;DHT22;22788;51.434;6.786;2023-04-24T00:24:57;12.90;99.90
36856;DHT22;22788;51.434;6.786;2023-04-24T00:27:22;12.90;99.90
36856;DHT22;22788;51.434;6.786;2023-04-24T00:29:48;12.90;99.90
36856;DHT22;22788;51.434;6.786;2023-04-24T00:32:15;13.10;99.90
36856;DHT22;22788;51.434;6.786;2023-04-24T00:34:41;12.90;99.90
36856;DHT22;22788;51.434;6.786;2023-04-24T00:37:07;12.80;99.90
36856;DHT22;22788;51.434;6.786;2023-04-24T00:39:32;12.90;99.90
36856;DHT22;22788;51.434;6.786;2023-04-24T00:41:58;12.90;99.90
36856;DHT22;22788;51.434;6.786;2023-04-24T00:44:24;12.80;99.90
36856;DHT22;22788;51.434;6.786;2023-04-24T00:46:50;12.70;99.90
36856;DHT22;22788;51.434;6.786;2023-04-24T00:49:18;12.70;99.90
36856;DHT22;22788;51.434;6.786;2023-04-24T00:51:43;12.60;99.90
36856;DHT22;22788;51.434;6.786;2023-04-24T00:54:09;12.60;99.90
36856;DHT22;22788;51.434;6.786;2023-04-24T00:56:35;12.60;99.90
36856;DHT22;22788;51.434;6.786;2023-04-24T00:59:00;12.60;99.90
36856;DHT22;22788;51.434;6.786;2023-04-24T01:01:26;12.50;99.90
36856;DHT22;22788;51.434;6.786;2023-04-24T01:03:52;12.50;99.90
36856;DHT22;22788;51.434;6.786;2023-04-24T01:06:20;12.50;99.90
36856;DHT22;22788;51.434;6.786;2023-04-24T01:08:47;12.50;99.90
36856;DHT22;22788;51.434;6.786;2023-04-24T01:11:14;12.50;99.90
36856;DHT22;22788;51.434;6.786;2023-04-24T01:13:40;12.60;99.90
36856;DHT22;22788;51.434;6.786;2023-04-24T01:16:05;12.60;99.90
36856;DHT22;22788;51.434;6.786;2023-04-24T01:18:31;12.60;99.90
36856;DHT22;22788;51.434;6.786;2023-04-24T01:20:58;12.70;99.90
36856;DHT22;22788;51.434;6.786;2023-04-24T01:23:26;12.70;99.90
36856;DHT22;22788;51.434;6.786;2023-04-24T01:25:52;12.60;99.90
36856;DHT22;22788;51.434;6.786;2023-04-24T01:28:17;12.60;99.90
36856;DHT22;22788;51.434;6.786;2023-04-24T01:30:43;12.60;99.90
36856;DHT22;22788;51.434;6.786;2023-04-24T01:33:10;12.60;99.90
36856;DHT22;22788;51.434;6.786;2023-04-24T01:35:35;12.60;99.90
36856;DHT22;22788;51.434;6.786;2023-04-24T01:38:01;12.50;99.90
36856;DHT22;22788;51.434;6.786;2023-04-24T01:40:28;12.40;99.90
36856;DHT22;22788;51.434;6.786;2023-04-24T01:42:54;12.40;99.90
36856;DHT22;22788;51.434;6.786;2023-04-24T01:45:20;12.40;99.90
36856;DHT22;22788;51.434;6.786;2023-04-24T01:47:46;12.40;99.90
36856;DHT22;22788;51.434;6.786;2023-04-24T01:50:13;12.30;99.90
36856;DHT22;22788;51.434;6.786;2023-04-24T01:52:39;12.30;99.90
36856;DHT22;22788;51.434;6.786;2023-04-24T01:55:05;12.40;99.90
36856;DHT22;22788;51.434;6.786;2023-04-24T01:57:33;12.40;99.90
36856;DHT22;22788;51.434;6.786;2023-04-24T01:59:59;12.30;99.90
36856;DHT22;22788;51.434;6.786;2023-04-24T02:02:25;12.20;99.90
36856;DHT22;22788;51.434;6.786;2023-04-24T02:04:50;12.20;99.90
36856;DHT22;22788;51.434;6.786;2023-04-24T02:07:16;12.30;99.90
36856;DHT22;22788;51.434;6.786;2023-04-24T02:09:42;12.50;99.90
36856;DHT22;22788;51.434;6.786;2023-04-24T02:12:07;12.40;99.90
36856;DHT22;22788;51.434;6.786;2023-04-24T02:14:34;12.30;99.90
36856;DHT22;22788;51.434;6.786;2023-04-24T02:17:00;12.40;99.90
36856;DHT22;22788;51.434;6.786;2023-04-24T02:19:26;12.40;99.90
36856;DHT22;22788;51.434;6.786;2023-04-24T02:21:51;12.30;99.90
36856;DHT22;22788;51.434;6.786;2023-04-24T02:24:17;12.30;99.90
36856;DHT22;22788;51.434;6.786;2023-04-24T02:26:43;12.30;99.90
36856;DHT22;22788;51.434;6.786;2023-04-24T02:29:08;12.30;99.90
36856;DHT22;22788;51.434;6.786;2023-04-24T02:31:35;12.20;99.90
36856;DHT22;22788;51.434;6.786;2023-04-24T02:34:01;12.30;99.90
36856;DHT22;22788;51.434;6.786;2023-04-24T02:36:27;12.20;99.90
36856;DHT22;22788;51.434;6.786;2023-04-24T02:38:52;12.30;99.90
36856;DHT22;22788;51.434;6.786;2023-04-24T02:41:18;12.20;99.90
36856;DHT22;22788;51.434;6.786;2023-04-24T02:43:43;12.20;99.90
36856;DHT22;22788;51.434;6.786;2023-04-24T02:46:09;12.30;99.90
36856;DHT22;22788;51.434;6.786;2023-04-24T02:48:36;12.30;99.90
36856;DHT22;22788;51.434;6.786;2023-04-24T02:51:02;12.30;99.90
36856;DHT22;22788;51.434;6.786;2023-04-24T02:53:27;12.30;99.90
36856;DHT22;22788;51.434;6.786;2023-04-24T02:55:53;12.30;99.90
36856;DHT22;22788;51.434;6.786;2023-04-24T02:58:19;12.40;99.90
36856;DHT22;22788;51.434;6.786;2023-04-24T03:00:44;12.30;99.90
36856;DHT22;22788;51.434;6.786;2023-04-24T03:03:10;12.30;99.90
36856;DHT22;22788;51.434;6.786;2023-04-24T03:05:37;12.30;99.90
36856;DHT22;22788;51.434;6.786;2023-04-24T03:08:02;12.80;99.90
36856;DHT22;22788;51.434;6.786;2023-04-24T03:10:28;12.10;99.90
36856;DHT22;22788;51.434;6.786;2023-04-24T03:12:54;12.10;99.90
36856;DHT22;22788;51.434;6.786;2023-04-24T03:15:19;12.20;99.90
36856;DHT22;22788;51.434;6.786;2023-04-24T03:17:45;12.10;99.90
36856;DHT22;22788;51.434;6.786;2023-04-24T03:20:10;12.20;99.90
36856;DHT22;22788;51.434;6.786;2023-04-24T03:22:37;12.20;99.90
36856;DHT22;22788;51.434;6.786;2023-04-24T03:25:04;12.30;99.90
36856;DHT22;22788;51.434;6.786;2023-04-24T03:27:29;12.20;99.90
36856;DHT22;22788;51.434;6.786;2023-04-24T03:29:55;12.20;99.90
36856;DHT22;22788;51.434;6.786;2023-04-24T03:32:21;12.20;99.90
36856;DHT22;22788;51.434;6.786;2023-04-24T03:34:46;12.30;99.90
36856;DHT22;22788;51.434;6.786;2023-04-24T03:37:12;12.30;99.90
36856;DHT22;22788;51.434;6.786;2023-04-24T03:39:39;12.20;99.90
36856;DHT22;22788;51.434;6.786;2023-04-24T03:42:04;12.20;99.90
36856;DHT22;22788;51.434;6.786;2023-04-24T03:44:30;12.20;99.90
36856;DHT22;22788;51.434;6.786;2023-04-24T03:46:57;12.30;99.90
36856;DHT22;22788;51.434;6.786;2023-04-24T03:49:23;12.20;99.90
36856;DHT22;22788;51.434;6.786;2023-04-24T03:51:48;12.30;99.90
36856;DHT22;22788;51.434;6.786;2023-04-24T03:54:14;12.20;99.90
36856;DHT22;22788;51.434;6.786;2023-04-24T03:56:41;12.20;99.90
36856;DHT22;22788;51.434;6.786;2023-04-24T03:59:06;12.20;99.90
36856;DHT22;22788;51.434;6.786;2023-04-24T04:01:32;12.20;99.90
36856;DHT22;22788;51.434;6.786;2023-04-24T04:03:58;12.20;99.90
36856;DHT22;22788;51.434;6.786;2023-04-24T04:06:23;12.20;99.90
36856;DHT22;22788;51.434;6.786;2023-04-24T04:08:49;12.10;99.90
36856;DHT22;22788;51.434;6.786;2023-04-24T04:11:15;12.10;99.90
36856;DHT22;22788;51.434;6.786;2023-04-24T04:13:41;12.10;99.90
36856;DHT22;22788;51.434;6.786;2023-04-24T04:16:08;12.10;99.90
36856;DHT22;22788;51.434;6.786;2023-04-24T04:18:34;12.20;99.90
36856;DHT22;22788;51.434;6.786;2023-04-24T04:21:00;12.10;99.90
36856;DHT22;22788;51.434;6.786;2023-04-24T04:23:25;12.10;99.90
36856;DHT22;22788;51.434;6.786;2023-04-24T04:25:51;12.20;99.90
36856;DHT22;22788;51.434;6.786;2023-04-24T04:28:16;12.20;99.90
36856;DHT22;22788;51.434;6.786;2023-04-24T04:30:43;12.20;99.90
36856;DHT22;22788;51.434;6.786;2023-04-24T04:33:09;12.10;99.90
36856;DHT22;22788;51.434;6.786;2023-04-24T04:35:34;12.10;99.90
36856;DHT22;22788;51.434;6.786;2023-04-24T04:38:00;12.10;99.90
36856;DHT22;22788;51.434;6.786;2023-04-24T04:40:26;12.10;99.90
36856;DHT22;22788;51.434;6.786;2023-04-24T04:42:51;12.10;99.90
36856;DHT22;22788;51.434;6.786;2023-04-24T04:45:17;12.20;99.90
36856;DHT22;22788;51.434;6.786;2023-04-24T04:47:44;12.10;99.90
36856;DHT22;22788;51.434;6.786;2023-04-24T04:50:10;12.10;99.90
36856;DHT22;22788;51.434;6.786;2023-04-24T04:52:35;12.00;99.90
36856;DHT22;22788;51.434;6.786;2023-04-24T04:55:01;11.90;99.90
36856;DHT22;22788;51.434;6.786;2023-04-24T04:57:26;12.10;99.90
36856;DHT22;22788;51.434;6.786;2023-04-24T04:59:52;12.10;99.90
36856;DHT22;22788;51.434;6.786;2023-04-24T05:02:18;12.20;99.90
36856;DHT22;22788;51.434;6.786;2023-04-24T05:04:45;12.00;99.90
36856;DHT22;22788;51.434;6.786;2023-04-24T05:07:11;11.90;99.90
36856;DHT22;22788;51.434;6.786;2023-04-24T05:09:37;11.90;99.90
36856;DHT22;22788;51.434;6.786;2023-04-24T05:12:03;12.00;99.90
36856;DHT22;22788;51.434;6.786;2023-04-24T05:14:28;12.00;99.90
36856;DHT22;22788;51.434;6.786;2023-04-24T05:16:54;12.00;99.90
36856;DHT22;22788;51.434;6.786;2023-04-24T05:19:20;11.90;99.90
36856;DHT22;22788;51.434;6.786;2023-04-24T05:21:47;11.80;99.90
36856;DHT22;22788;51.434;6.786;2023-04-24T05:24:12;11.70;99.90
36856;DHT22;22788;51.434;6.786;2023-04-24T05:26:38;11.70;99.90
36856;DHT22;22788;51.434;6.786;2023-04-24T05:29:03;11.70;99.90
36856;DHT22;22788;51.434;6.786;2023-04-24T05:31:29;11.80;99.90
36856;DHT22;22788;51.434;6.786;2023-04-24T05:33:55;11.70;99.90
36856;DHT22;22788;51.434;6.786;2023-04-24T05:36:20;11.80;99.90
36856;DHT22;22788;51.434;6.786;2023-04-24T05:38:47;11.90;99.90
36856;DHT22;22788;51.434;6.786;2023-04-24T05:41:13;11.90;99.90
36856;DHT22;22788;51.434;6.786;2023-04-24T05:43:39;12.00;99.90
36856;DHT22;22788;51.434;6.786;2023-04-24T05:46:04;12.00;99.90
36856;DHT22;22788;51.434;6.786;2023-04-24T05:48:30;11.80;99.90
36856;DHT22;22788;51.434;6.786;2023-04-24T05:50:56;11.80;99.90
36856;DHT22;22788;51.434;6.786;2023-04-24T05:53:21;11.80;99.90
36856;DHT22;22788;51.434;6.786;2023-04-24T05:55:48;11.80;99.90
36856;DHT22;22788;51.434;6.786;2023-04-24T05:58:14;11.80;99.90
36856;DHT22;22788;51.434;6.786;2023-04-24T06:00:40;11.80;99.90
36856;DHT22;22788;51.434;6.786;2023-04-24T06:03:06;11.90;99.90
36856;DHT22;22788;51.434;6.786;2023-04-24T06:05:31;11.90;99.90
36856;DHT22;22788;51.434;6.786;2023-04-24T06:07:57;11.80;99.90
36856;DHT22;22788;51.434;6.786;2023-04-24T06:10:23;11.90;99.90
36856;DHT22;22788;51.434;6.786;2023-04-24T06:12:50;11.80;99.90
36856;DHT22;22788;51.434;6.786;2023-04-24T06:15:16;11.70;99.90
36856;DHT22;22788;51.434;6.786;2023-04-24T06:17:41;11.70;99.90
36856;DHT22;22788;51.434;6.786;2023-04-24T06:20:07;11.70;99.90
36856;DHT22;22788;51.434;6.786;2023-04-24T06:22:33;11.70;99.90
36856;DHT22;22788;51.434;6.786;2023-04-24T06:24:59;11.70;99.90
36856;DHT22;22788;51.434;6.786;2023-04-24T06:27:25;11.90;99.90
36856;DHT22;22788;51.434;6.786;2023-04-24T06:29:52;11.90;99.90
36856;DHT22;22788;51.434;6.786;2023-04-24T06:32:17;11.80;99.90
36856;DHT22;22788;51.434;6.786;2023-04-24T06:34:43;11.90;99.90
36856;DHT22;22788;51.434;6.786;2023-04-24T06:37:09;12.20;99.90
36856;DHT22;22788;51.434;6.786;2023-04-24T06:39:36;11.90;99.90
36856;DHT22;22788;51.434;6.786;2023-04-24T06:42:02;11.80;99.90
36856;DHT22;22788;51.434;6.786;2023-04-24T06:44:27;11.70;99.90
36856;DHT22;22788;51.434;6.786;2023-04-24T06:46:54;11.80;99.90
36856;DHT22;22788;51.434;6.786;2023-04-24T06:49:20;11.80;99.90
36856;DHT22;22788;51.434;6.786;2023-04-24T06:51:46;11.70;99.90
36856;DHT22;22788;51.434;6.786;2023-04-24T06:54:11;11.60;99.90
36856;DHT22;22788;51.434;6.786;2023-04-24T06:56:37;11.60;99.90
36856;DHT22;22788;51.434;6.786;2023-04-24T06:59:02;11.60;99.90
36856;DHT22;22788;51.434;6.786;2023-04-24T07:01:28;11.70;99.90
36856;DHT22;22788;51.434;6.786;2023-04-24T07:03:55;11.80;99.90
36856;DHT22;22788;51.434;6.786;2023-04-24T07:06:21;11.70;99.90
36856;DHT22;22788;51.434;6.786;2023-04-24T07:08:46;11.70;99.90
36856;DHT22;22788;51.434;6.786;2023-04-24T07:11:12;11.70;99.90
36856;DHT22;22788;51.434;6.786;2023-04-24T07:13:37;11.80;99.90
36856;DHT22;22788;51.434;6.786;2023-04-24T07:16:03;11.60;99.90
36856;DHT22;22788;51.434;6.786;2023-04-24T07:18:29;11.80;99.90
36856;DHT22;22788;51.434;6.786;2023-04-24T07:20:56;11.60;99.90
36856;DHT22;22788;51.434;6.786;2023-04-24T07:23:21;11.40;99.90
36856;DHT22;22788;51.434;6.786;2023-04-24T07:25:47;11.30;99.90
36856;DHT22;22788;51.434;6.786;2023-04-24T07:28:13;11.40;99.90
36856;DHT22;22788;51.434;6.786;2023-04-24T07:30:38;11.40;99.90
36856;DHT22;22788;51.434;6.786;2023-04-24T07:33:04;11.40;99.90
36856;DHT22;22788;51.434;6.786;2023-04-24T07:35:29;11.30;99.90
36856;DHT22;22788;51.434;6.786;2023-04-24T07:37:57;11.50;99.90
36856;DHT22;22788;51.434;6.786;2023-04-24T07:40:22;11.30;99.90
36856;DHT22;22788;51.434;6.786;2023-04-24T07:42:48;11.50;99.90
36856;DHT22;22788;51.434;6.786;2023-04-24T07:45:14;11.50;99.90
36856;DHT22;22788;51.434;6.786;2023-04-24T07:47:41;11.50;99.90
36856;DHT22;22788;51.434;6.786;2023-04-24T07:50:06;11.40;99.90
36856;DHT22;22788;51.434;6.786;2023-04-24T07:52:32;11.30;99.90
36856;DHT22;22788;51.434;6.786;2023-04-24T07:55:04;11.40;99.90
36856;DHT22;22788;51.434;6.786;2023-04-24T07:57:29;11.50;99.90
36856;DHT22;22788;51.434;6.786;2023-04-24T07:59:55;11.50;99.90
36856;DHT22;22788;51.434;6.786;2023-04-24T08:02:21;11.30;99.90
36856;DHT22;22788;51.434;6.786;2023-04-24T08:04:46;11.20;99.90
36856;DHT22;22788;51.434;6.786;2023-04-24T08:07:12;11.30;99.90
36856;DHT22;22788;51.434;6.786;2023-04-24T08:09:37;11.40;99.90
36856;DHT22;22788;51.434;6.786;2023-04-24T08:12:05;11.50;99.90
36856;DHT22;22788;51.434;6.786;2023-04-24T08:14:31;11.60;99.90
36856;DHT22;22788;51.434;6.786;2023-04-24T08:16:56;11.40;99.90
36856;DHT22;22788;51.434;6.786;2023-04-24T08:19:22;11.30;99.90
36856;DHT22;22788;51.434;6.786;2023-04-24T08:21:48;11.40;99.90
36856;DHT22;22788;51.434;6.786;2023-04-24T08:24:13;11.50;99.90
36856;DHT22;22788;51.434;6.786;2023-04-24T08:26:39;11.50;99.90
36856;DHT22;22788;51.434;6.786;2023-04-24T08:29:06;11.50;99.90
36856;DHT22;22788;51.434;6.786;2023-04-24T08:31:32;11.40;99.90
36856;DHT22;22788;51.434;6.786;2023-04-24T08:33:58;11.30;99.90
36856;DHT22;22788;51.434;6.786;2023-04-24T08:36:24;11.10;99.90
36856;DHT22;22788;51.434;6.786;2023-04-24T08:38:49;11.00;99.90
36856;DHT22;22788;51.434;6.786;2023-04-24T08:41:15;11.00;99.90
36856;DHT22;22788;51.434;6.786;2023-04-24T08:43:45;11.10;99.90
36856;DHT22;22788;51.434;6.786;2023-04-24T08:46:13;11.20;99.90
36856;DHT22;22788;51.434;6.786;2023-04-24T08:48:39;11.20;99.90
36856;DHT22;22788;51.434;6.786;2023-04-24T08:51:06;11.30;99.90
36856;DHT22;22788;51.434;6.786;2023-04-24T08:53:33;11.40;99.90
36856;DHT22;22788;51.434;6.786;2023-04-24T08:55:58;11.20;99.90
36856;DHT22;22788;51.434;6.786;2023-04-24T08:58:25;11.30;99.90
36856;DHT22;22788;51.434;6.786;2023-04-24T09:00:51;11.20;99.90
36856;DHT22;22788;51.434;6.786;2023-04-24T09:03:18;11.40;99.90
36856;DHT22;22788;51.434;6.786;2023-04-24T09:05:46;11.20;99.90
36856;DHT22;22788;51.434;6.786;2023-04-24T09:08:14;11.10;99.90
36856;DHT22;22788;51.434;6.786;2023-04-24T09:10:40;11.20;99.90
36856;DHT22;22788;51.434;6.786;2023-04-24T09:13:06;11.10;99.90
36856;DHT22;22788;51.434;6.786;2023-04-24T09:15:31;11.00;99.90
36856;DHT22;22788;51.434;6.786;2023-04-24T09:17:57;11.00;99.90
36856;DHT22;22788;51.434;6.786;2023-04-24T09:20:24;11.00;99.90
36856;DHT22;22788;51.434;6.786;2023-04-24T09:22:53;10.90;99.90
36856;DHT22;22788;51.434;6.786;2023-04-24T09:25:19;11.00;99.90
36856;DHT22;22788;51.434;6.786;2023-04-24T09:27:45;10.90;99.90
36856;DHT22;22788;51.434;6.786;2023-04-24T09:30:11;10.90;99.90
36856;DHT22;22788;51.434;6.786;2023-04-24T09:32:37;10.90;99.90
36856;DHT22;22788;51.434;6.786;2023-04-24T09:35:10;10.90;99.90
36856;DHT22;22788;51.434;6.786;2023-04-24T09:37:38;10.80;99.90
36856;DHT22;22788;51.434;6.786;2023-04-24T09:40:08;10.80;99.90
36856;DHT22;22788;51.434;6.786;2023-04-24T09:42:34;10.80;99.90
36856;DHT22;22788;51.434;6.786;2023-04-24T09:45:00;10.70;99.90
36856;DHT22;22788;51.434;6.786;2023-04-24T09:47:25;10.80;99.90
36856;DHT22;22788;51.434;6.786;2023-04-24T09:49:57;10.80;99.90
36856;DHT22;22788;51.434;6.786;2023-04-24T09:52:23;10.90;99.90
36856;DHT22;22788;51.434;6.786;2023-04-24T09:54:54;10.80;99.90
36856;DHT22;22788;51.434;6.786;2023-04-24T09:57:20;10.80;99.90
36856;DHT22;22788;51.434;6.786;2023-04-24T09:59:46;10.80;99.90
36856;DHT22;22788;51.434;6.786;2023-04-24T10:02:17;10.90;99.90
36856;DHT22;22788;51.434;6.786;2023-04-24T10:04:54;11.00;99.90
36856;DHT22;22788;51.434;6.786;2023-04-24T10:07:20;11.00;99.90
36856;DHT22;22788;51.434;6.786;2023-04-24T10:09:45;11.00;99.90
36856;DHT22;22788;51.434;6.786;2023-04-24T10:12:13;11.00;99.90
36856;DHT22;22788;51.434;6.786;2023-04-24T10:14:39;10.90;99.90
36856;DHT22;22788;51.434;6.786;2023-04-24T10:17:06;11.00;99.90
36856;DHT22;22788;51.434;6.786;2023-04-24T10:19:33;10.90;99.90
36856;DHT22;22788;51.434;6.786;2023-04-24T10:21:59;11.00;99.90
36856;DHT22;22788;51.434;6.786;2023-04-24T10:24:26;11.00;99.90
36856;DHT22;22788;51.434;6.786;2023-04-24T10:26:52;10.90;99.90
36856;DHT22;22788;51.434;6.786;2023-04-24T10:29:19;11.00;99.90
36856;DHT22;22788;51.434;6.786;2023-04-24T10:31:45;11.00;99.90
36856;DHT22;22788;51.434;6.786;2023-04-24T10:34:11;11.10;99.90
36856;DHT22;22788;51.434;6.786;2023-04-24T10:36:39;11.20;99.90
36856;DHT22;22788;51.434;6.786;2023-04-24T10:39:08;11.30;99.90
36856;DHT22;22788;51.434;6.786;2023-04-24T10:41:37;11.20;99.90
36856;DHT22;22788;51.434;6.786;2023-04-24T10:44:07;11.10;99.90
36856;DHT22;22788;51.434;6.786;2023-04-24T10:46:34;11.10;99.90
36856;DHT22;22788;51.434;6.786;2023-04-24T10:49:03;11.20;99.90
36856;DHT22;22788;51.434;6.786;2023-04-24T10:51:45;11.20;99.90
36856;DHT22;22788;51.434;6.786;2023-04-24T10:54:22;11.10;99.90
36856;DHT22;22788;51.434;6.786;2023-04-24T10:56:48;11.20;99.90
36856;DHT22;22788;51.434;6.786;2023-04-24T10:59:24;11.10;99.90
36856;DHT22;22788;51.434;6.786;2023-04-24T11:01:57;11.20;99.90
36856;DHT22;22788;51.434;6.786;2023-04-24T11:04:42;11.10;99.90
36856;DHT22;22788;51.434;6.786;2023-04-24T11:07:19;11.10;99.90
36856;DHT22;22788;51.434;6.786;2023-04-24T11:10:04;11.20;99.90
36856;DHT22;22788;51.434;6.786;2023-04-24T11:12:34;11.20;99.90
36856;DHT22;22788;51.434;6.786;2023-04-24T11:15:02;11.30;99.90
36856;DHT22;22788;51.434;6.786;2023-04-24T11:17:35;11.30;99.90
36856;DHT22;22788;51.434;6.786;2023-04-24T11:20:03;11.20;99.90
36856;DHT22;22788;51.434;6.786;2023-04-24T11:22:34;11.30;99.90
36856;DHT22;22788;51.434;6.786;2023-04-24T11:25:02;11.10;99.90
36856;DHT22;22788;51.434;6.786;2023-04-24T11:27:32;11.10;99.90
36856;DHT22;22788;51.434;6.786;2023-04-24T11:30:03;11.10;99.90
36856;DHT22;22788;51.434;6.786;2023-04-24T11:32:30;11.20;99.90
36856;DHT22;22788;51.434;6.786;2023-04-24T11:34:58;11.00;99.90
36856;DHT22;22788;51.434;6.786;2023-04-24T11:37:33;11.10;99.90
36856;DHT22;22788;51.434;6.786;2023-04-24T11:40:12;11.20;99.90
36856;DHT22;22788;51.434;6.786;2023-04-24T11:42:51;11.20;99.90
36856;DHT22;22788;51.434;6.786;2023-04-24T11:45:28;11.20;99.90
36856;DHT22;22788;51.434;6.786;2023-04-24T11:48:06;11.30;99.90
36856;DHT22;22788;51.434;6.786;2023-04-24T11:50:35;11.30;99.90
36856;DHT22;22788;51.434;6.786;2023-04-24T11:53:02;11.40;99.90
36856;DHT22;22788;51.434;6.786;2023-04-24T11:55:30;11.40;99.90
36856;DHT22;22788;51.434;6.786;2023-04-24T11:57:59;11.40;99.90
36856;DHT22;22788;51.434;6.786;2023-04-24T12:00:28;11.40;99.90
36856;DHT22;22788;51.434;6.786;2023-04-24T12:03:05;11.40;99.90
36856;DHT22;22788;51.434;6.786;2023-04-24T12:05:33;11.50;99.90
36856;DHT22;22788;51.434;6.786;2023-04-24T12:08:01;11.50;99.90
36856;DHT22;22788;51.434;6.786;2023-04-24T12:10:30;11.50;99.90
36856;DHT22;22788;51.434;6.786;2023-04-24T12:12:56;11.50;99.90
36856;DHT22;22788;51.434;6.786;2023-04-24T12:15:22;11.50;99.90
36856;DHT22;22788;51.434;6.786;2023-04-24T12:17:50;11.40;99.90
36856;DHT22;22788;51.434;6.786;2023-04-24T12:20:17;11.50;99.90
36856;DHT22;22788;51.434;6.786;2023-04-24T12:22:48;11.60;99.90
36856;DHT22;22788;51.434;6.786;2023-04-24T12:25:15;11.40;99.90
36856;DHT22;22788;51.434;6.786;2023-04-24T12:27:41;11.30;99.90
36856;DHT22;22788;51.434;6.786;2023-04-24T12:30:12;11.50;99.90
36856;DHT22;22788;51.434;6.786;2023-04-24T12:32:41;11.30;99.90
36856;DHT22;22788;51.434;6.786;2023-04-24T12:35:08;11.30;99.90
36856;DHT22;22788;51.434;6.786;2023-04-24T12:37:33;11.30;99.90
36856;DHT22;22788;51.434;6.786;2023-04-24T12:40:03;11.30;99.90
36856;DHT22;22788;51.434;6.786;2023-04-24T12:42:30;11.30;99.90
36856;DHT22;22788;51.434;6.786;2023-04-24T12:44:56;11.30;99.90
36856;DHT22;22788;51.434;6.786;2023-04-24T12:47:22;11.30;99.90
36856;DHT22;22788;51.434;6.786;2023-04-24T12:49:48;11.40;99.90
36856;DHT22;22788;51.434;6.786;2023-04-24T12:52:13;11.40;99.90
36856;DHT22;22788;51.434;6.786;2023-04-24T12:54:39;11.40;99.90
36856;DHT22;22788;51.434;6.786;2023-04-24T12:57:06;11.50;99.90
36856;DHT22;22788;51.434;6.786;2023-04-24T12:59:31;11.50;99.90
36856;DHT22;22788;51.434;6.786;2023-04-24T13:01:57;11.50;99.90
36856;DHT22;22788;51.434;6.786;2023-04-24T13:04:23;11.60;99.90
36856;DHT22;22788;51.434;6.786;2023-04-24T13:06:49;11.60;99.90
36856;DHT22;22788;51.434;6.786;2023-04-24T13:09:14;11.50;99.90
36856;DHT22;22788;51.434;6.786;2023-04-24T13:11:40;11.50;99.90
36856;DHT22;22788;51.434;6.786;2023-04-24T13:14:07;11.40;99.90
36856;DHT22;22788;51.434;6.786;2023-04-24T13:16:33;11.40;99.90
36856;DHT22;22788;51.434;6.786;2023-04-24T13:18:58;11.40;99.90
36856;DHT22;22788;51.434;6.786;2023-04-24T13:21:24;11.40;99.90
36856;DHT22;22788;51.434;6.786;2023-04-24T13:23:50;11.40;99.90
36856;DHT22;22788;51.434;6.786;2023-04-24T13:26:15;11.40;99.90
36856;DHT22;22788;51.434;6.786;2023-04-24T13:28:41;11.40;99.90
36856;DHT22;22788;51.434;6.786;2023-04-24T13:31:08;11.40;99.90
36856;DHT22;22788;51.434;6.786;2023-04-24T13:33:34;11.40;99.90
36856;DHT22;22788;51.434;6.786;2023-04-24T13:36:00;11.40;99.90
36856;DHT22;22788;51.434;6.786;2023-04-24T13:38:26;11.40;99.90
36856;DHT22;22788;51.434;6.786;2023-04-24T13:40:51;11.40;99.90
36856;DHT22;22788;51.434;6.786;2023-04-24T13:43:17;11.50;99.90
36856;DHT22;22788;51.434;6.786;2023-04-24T13:45:43;11.40;99.90
36856;DHT22;22788;51.434;6.786;2023-04-24T13:48:10;11.40;99.90
36856;DHT22;22788;51.434;6.786;2023-04-24T13:50:35;11.50;99.90
36856;DHT22;22788;51.434;6.786;2023-04-24T13:53:02;11.50;99.90
36856;DHT22;22788;51.434;6.786;2023-04-24T13:55:27;11.50;99.90
36856;DHT22;22788;51.434;6.786;2023-04-24T13:57:53;11.50;99.90
36856;DHT22;22788;51.434;6.786;2023-04-24T14:00:19;11.50;99.90
36856;DHT22;22788;51.434;6.786;2023-04-24T14:02:45;11.60;99.90
36856;DHT22;22788;51.434;6.786;2023-04-24T14:05:12;11.70;99.90
36856;DHT22;22788;51.434;6.786;2023-04-24T14:07:38;11.70;99.90
36856;DHT22;22788;51.434;6.786;2023-04-24T14:10:04;11.70;99.90
36856;DHT22;22788;51.434;6.786;2023-04-24T14:12:30;11.70;99.90
36856;DHT22;22788;51.434;6.786;2023-04-24T14:14:56;11.70;99.90
36856;DHT22;22788;51.434;6.786;2023-04-24T14:17:21;11.70;99.90
36856;DHT22;22788;51.434;6.786;2023-04-24T14:19:47;11.70;99.90
36856;DHT22;22788;51.434;6.786;2023-04-24T14:22:14;11.80;99.90
36856;DHT22;22788;51.434;6.786;2023-04-24T14:24:39;11.70;99.90
36856;DHT22;22788;51.434;6.786;2023-04-24T14:27:05;11.70;99.90
36856;DHT22;22788;51.434;6.786;2023-04-24T14:29:31;11.70;99.90
36856;DHT22;22788;51.434;6.786;2023-04-24T14:31:56;11.70;99.90
36856;DHT22;22788;51.434;6.786;2023-04-24T14:34:22;11.60;99.90
36856;DHT22;22788;51.434;6.786;2023-04-24T14:36:47;11.70;99.90
36856;DHT22;22788;51.434;6.786;2023-04-24T14:39:14;11.70;99.90
36856;DHT22;22788;51.434;6.786;2023-04-24T14:41:40;11.60;99.90
36856;DHT22;22788;51.434;6.786;2023-04-24T14:44:06;11.60;99.90
36856;DHT22;22788;51.434;6.786;2023-04-24T14:46:31;11.50;99.90
36856;DHT22;22788;51.434;6.786;2023-04-24T14:48:57;11.50;99.90
36856;DHT22;22788;51.434;6.786;2023-04-24T14:51:23;11.50;99.90
36856;DHT22;22788;51.434;6.786;2023-04-24T14:53:49;11.40;99.90
36856;DHT22;22788;51.434;6.786;2023-04-24T14:56:16;11.40;99.90
36856;DHT22;22788;51.434;6.786;2023-04-24T14:58:42;11.50;99.90
36856;DHT22;22788;51.434;6.786;2023-04-24T15:01:07;11.40;99.90
36856;DHT22;22788;51.434;6.786;2023-04-24T15:03:33;11.40;99.90
36856;DHT22;22788;51.434;6.786;2023-04-24T15:05:59;11.50;99.90
36856;DHT22;22788;51.434;6.786;2023-04-24T15:08:24;11.50;99.90
36856;DHT22;22788;51.434;6.786;2023-04-24T15:10:50;11.60;99.90
36856;DHT22;22788;51.434;6.786;2023-04-24T15:13:17;11.60;99.90
36856;DHT22;22788;51.434;6.786;2023-04-24T15:15:45;11.60;99.90
36856;DHT22;22788;51.434;6.786;2023-04-24T15:18:11;11.70;99.90
36856;DHT22;22788;51.434;6.786;2023-04-24T15:20:37;11.70;99.90
36856;DHT22;22788;51.434;6.786;2023-04-24T15:23:02;11.80;99.90
36856;DHT22;22788;51.434;6.786;2023-04-24T15:25:28;11.70;99.90